createdAt,value
2018-11-26T00:01:35.036Z,81.50
2018-11-26T00:04:03.122Z,81.50
2018-11-26T00:06:31.245Z,81.50
2018-11-26T00:08:59.375Z,81.00
2018-11-26T00:11:36.423Z,80.30
2018-11-26T00:14:05.273Z,80.40
2018-11-26T00:16:33.678Z,80.70
2018-11-26T00:19:01.841Z,80.60
2018-11-26T00:21:29.987Z,80.50
2018-11-26T00:23:58.319Z,80.40
2018-11-26T00:26:26.498Z,80.40
2018-11-26T00:28:54.676Z,80.20
2018-11-26T00:31:22.776Z,80.00
2018-11-26T00:33:51.008Z,80.00
2018-11-26T00:36:19.153Z,80.10
2018-11-26T00:38:47.458Z,80.00
2018-11-26T00:41:15.559Z,79.80
2018-11-26T00:43:43.706Z,79.50
2018-11-26T00:46:11.913Z,79.80
2018-11-26T00:48:40.103Z,79.60
2018-11-26T00:51:08.276Z,79.90
2018-11-26T00:53:36.395Z,79.70
2018-11-26T00:56:04.885Z,79.60
2018-11-26T00:58:33.088Z,79.90
2018-11-26T01:01:01.192Z,79.80
2018-11-26T01:03:29.535Z,79.90
2018-11-26T01:05:57.665Z,80.00
2018-11-26T01:08:25.822Z,79.90
2018-11-26T01:10:53.947Z,80.00
2018-11-26T01:13:22.063Z,79.80
2018-11-26T01:15:50.195Z,79.70
2018-11-26T01:18:18.307Z,79.60
2018-11-26T01:20:46.463Z,80.20
2018-11-26T01:23:14.695Z,79.60
2018-11-26T01:25:42.807Z,79.60
2018-11-26T01:28:10.979Z,79.70
2018-11-26T01:30:39.158Z,79.60
2018-11-26T01:33:07.383Z,79.70
2018-11-26T01:35:35.489Z,79.70
2018-11-26T01:38:03.643Z,79.40
2018-11-26T01:40:37.147Z,79.40
2018-11-26T01:43:06.031Z,79.60
2018-11-26T01:45:34.177Z,79.20
2018-11-26T01:48:02.322Z,79.40
2018-11-26T01:50:30.584Z,79.40
2018-11-26T01:52:58.703Z,79.60
2018-11-26T01:55:26.852Z,79.60
2018-11-26T01:57:55.191Z,79.50
2018-11-26T02:00:25.620Z,79.30
2018-11-26T02:02:53.928Z,79.40
2018-11-26T02:05:22.079Z,79.20
2018-11-26T02:07:50.248Z,79.30
2018-11-26T02:10:19.395Z,79.10
2018-11-26T02:12:47.895Z,79.00
2018-11-26T02:15:27.527Z,78.90
2018-11-26T02:17:55.631Z,79.10
2018-11-26T02:20:24.232Z,78.90
2018-11-26T02:22:52.499Z,78.80
2018-11-26T02:25:20.665Z,79.10
2018-11-26T02:27:48.780Z,79.20
2018-11-26T02:30:17.111Z,79.50
2018-11-26T02:32:45.309Z,79.20
2018-11-26T02:35:13.391Z,79.20
2018-11-26T02:37:41.483Z,79.20
2018-11-26T02:40:12.995Z,79.30
2018-11-26T02:42:41.309Z,78.80
2018-11-26T02:45:09.461Z,79.00
2018-11-26T02:47:37.587Z,78.90
2018-11-26T02:50:05.699Z,79.00
2018-11-26T02:52:33.787Z,78.80
2018-11-26T02:55:02.181Z,78.90
2018-11-26T02:57:30.292Z,78.90
2018-11-26T02:59:58.447Z,78.50
2018-11-26T03:02:26.535Z,78.80
2018-11-26T03:04:54.675Z,79.20
2018-11-26T03:07:23.146Z,79.00
2018-11-26T03:09:51.347Z,78.80
2018-11-26T03:12:19.487Z,79.00
2018-11-26T03:14:47.583Z,79.20
2018-11-26T03:17:15.667Z,78.80
2018-11-26T03:19:43.803Z,78.90
2018-11-26T03:22:11.943Z,78.90
2018-11-26T03:24:40.086Z,78.80
2018-11-26T03:27:08.307Z,78.50
2018-11-26T03:29:36.396Z,78.60
2018-11-26T03:32:04.623Z,78.60
2018-11-26T03:34:32.779Z,78.70
2018-11-26T03:37:00.901Z,78.50
2018-11-26T03:39:29.003Z,78.30
2018-11-26T03:41:57.151Z,78.20
2018-11-26T03:44:25.276Z,78.40
2018-11-26T03:46:53.390Z,78.40
2018-11-26T03:49:21.511Z,78.40
2018-11-26T03:51:49.672Z,78.80
2018-11-26T03:54:17.819Z,78.40
2018-11-26T03:56:45.951Z,78.40
2018-11-26T03:59:14.133Z,78.40
2018-11-26T04:01:42.353Z,78.50
2018-11-26T04:04:10.507Z,78.50
2018-11-26T04:06:38.640Z,78.50
2018-11-26T04:09:08.223Z,78.50
2018-11-26T04:11:36.623Z,78.70
2018-11-26T04:14:04.767Z,78.60
2018-11-26T04:16:32.895Z,78.60
2018-11-26T04:19:01.031Z,78.50
2018-11-26T04:21:29.208Z,78.50
2018-11-26T04:23:58.355Z,78.80
2018-11-26T04:26:26.488Z,78.90
2018-11-26T04:28:54.728Z,78.50
2018-11-26T04:31:22.856Z,78.40
2018-11-26T04:33:50.967Z,78.20
2018-11-26T04:36:19.101Z,78.60
2018-11-26T04:38:47.235Z,78.40
2018-11-26T04:41:15.386Z,78.30
2018-11-26T04:43:43.603Z,78.40
2018-11-26T04:46:11.714Z,78.60
2018-11-26T04:48:39.868Z,78.30
2018-11-26T04:51:07.963Z,78.30
2018-11-26T04:53:36.077Z,79.20
2018-11-26T04:56:04.280Z,78.30
2018-11-26T04:58:32.475Z,78.10
2018-11-26T05:01:00.639Z,78.10
2018-11-26T05:03:28.808Z,78.30
2018-11-26T05:05:56.987Z,78.30
2018-11-26T05:08:25.084Z,78.20
2018-11-26T05:10:53.275Z,78.20
2018-11-26T05:13:21.404Z,78.50
2018-11-26T05:15:50.531Z,78.50
2018-11-26T05:18:18.646Z,78.40
2018-11-26T05:20:46.760Z,78.40
2018-11-26T05:23:14.891Z,78.50
2018-11-26T05:25:43.025Z,78.60
2018-11-26T05:28:11.232Z,78.40
2018-11-26T05:30:39.332Z,78.40
2018-11-26T05:33:07.436Z,78.30
2018-11-26T05:35:35.560Z,79.20
2018-11-26T05:38:03.655Z,78.60
2018-11-26T05:40:31.803Z,78.60
2018-11-26T05:42:59.922Z,79.10
2018-11-26T05:45:28.048Z,79.20
2018-11-26T05:47:56.182Z,79.20
2018-11-26T05:50:24.340Z,79.80
2018-11-26T05:52:52.674Z,80.30
2018-11-26T05:55:21.330Z,80.80
2018-11-26T05:57:48.928Z,81.20
2018-11-26T06:00:20.210Z,81.40
2018-11-26T06:02:48.326Z,81.90
2018-11-26T06:05:16.463Z,82.00
2018-11-26T06:07:44.588Z,82.00
2018-11-26T06:10:12.687Z,81.90
2018-11-26T06:12:40.807Z,81.80
2018-11-26T06:15:11.568Z,81.70
2018-11-26T06:17:39.911Z,81.80
2018-11-26T06:20:09.634Z,82.50
2018-11-26T06:22:37.701Z,81.70
2018-11-26T06:25:08.372Z,81.70
2018-11-26T06:27:36.470Z,81.70
2018-11-26T06:30:09.401Z,81.60
2018-11-26T06:32:37.498Z,81.40
2018-11-26T06:35:14.155Z,81.20
2018-11-26T06:37:42.283Z,81.10
2018-11-26T06:40:11.169Z,81.00
2018-11-26T06:42:39.320Z,80.90
2018-11-26T06:45:12.939Z,80.80
2018-11-26T06:47:41.512Z,80.70
2018-11-26T06:50:11.445Z,80.50
2018-11-26T06:52:39.704Z,80.90
2018-11-26T06:55:09.771Z,80.90
2018-11-26T06:57:37.974Z,80.80
2018-11-26T07:00:08.937Z,80.80
2018-11-26T07:02:37.071Z,80.90
2018-11-26T07:05:08.271Z,80.90
2018-11-26T07:07:36.368Z,80.80
2018-11-26T07:10:04.543Z,80.90
2018-11-26T07:12:32.631Z,80.80
2018-11-26T07:15:00.768Z,80.80
2018-11-26T07:17:28.948Z,80.70
2018-11-26T07:19:57.090Z,80.50
2018-11-26T07:22:25.563Z,80.60
2018-11-26T07:24:53.689Z,80.50
2018-11-26T07:27:21.792Z,80.40
2018-11-26T07:29:49.947Z,80.40
2018-11-26T07:32:18.615Z,80.40
2018-11-26T07:34:46.722Z,80.30
2018-11-26T07:37:14.823Z,80.30
2018-11-26T07:39:42.941Z,80.10
2018-11-26T07:42:11.037Z,80.10
2018-11-26T07:44:39.150Z,80.00
2018-11-26T07:47:08.097Z,79.90
2018-11-26T07:49:36.190Z,80.00
2018-11-26T07:52:04.735Z,80.00
2018-11-26T07:54:32.822Z,79.80
2018-11-26T07:57:01.939Z,79.70
2018-11-26T07:59:30.084Z,79.80
2018-11-26T08:01:58.171Z,79.60
2018-11-26T08:04:26.295Z,79.60
2018-11-26T08:06:54.395Z,79.50
2018-11-26T08:09:22.494Z,79.50
2018-11-26T08:11:50.591Z,79.30
2018-11-26T08:14:18.700Z,79.40
2018-11-26T08:16:46.844Z,79.40
2018-11-26T08:19:14.959Z,79.40
2018-11-26T08:21:43.059Z,79.40
2018-11-26T08:24:11.173Z,79.20
2018-11-26T08:26:39.267Z,79.10
2018-11-26T08:29:07.589Z,79.00
2018-11-26T08:31:35.699Z,79.20
2018-11-26T08:34:03.796Z,79.20
2018-11-26T08:36:33.779Z,78.80
2018-11-26T08:39:07.320Z,78.80
2018-11-26T08:41:36.959Z,78.70
2018-11-26T08:44:10.631Z,78.70
2018-11-26T08:46:44.202Z,78.70
2018-11-26T08:49:16.009Z,78.70
2018-11-26T08:51:44.207Z,78.60
2018-11-26T08:54:12.328Z,78.40
2018-11-26T08:56:40.655Z,78.50
2018-11-26T08:59:08.745Z,78.30
2018-11-26T09:01:44.115Z,78.30
2018-11-26T09:04:17.738Z,78.30
2018-11-26T09:06:46.071Z,78.10
2018-11-26T09:09:14.171Z,78.00
2018-11-26T09:11:42.263Z,77.90
2018-11-26T09:14:10.639Z,78.00
2018-11-26T09:16:38.786Z,78.10
2018-11-26T09:19:06.908Z,78.10
2018-11-26T09:21:35.052Z,77.90
2018-11-26T09:24:03.135Z,78.10
2018-11-26T09:26:31.237Z,78.10
2018-11-26T09:28:59.587Z,77.80
2018-11-26T09:31:27.675Z,77.80
2018-11-26T09:33:55.851Z,78.10
2018-11-26T09:36:24.551Z,79.70
2018-11-26T09:38:52.912Z,80.30
2018-11-26T09:41:21.651Z,78.80
2018-11-26T09:43:49.695Z,78.20
2018-11-26T09:46:17.858Z,78.10
2018-11-26T09:48:45.966Z,78.10
2018-11-26T09:51:14.479Z,77.90
2018-11-26T09:53:42.410Z,77.90
2018-11-26T09:56:10.491Z,77.70
2018-11-26T09:58:38.827Z,77.70
2018-11-26T10:01:06.929Z,77.70
2018-11-26T10:03:35.095Z,77.60
2018-11-26T10:06:03.757Z,77.60
2018-11-26T10:08:31.914Z,78.00
2018-11-26T10:10:59.955Z,78.10
2018-11-26T10:13:28.253Z,78.20
2018-11-26T10:15:56.363Z,78.20
2018-11-26T10:18:24.474Z,77.60
2018-11-26T10:20:53.988Z,76.90
2018-11-26T10:23:29.771Z,76.70
2018-11-26T10:25:58.941Z,76.30
2018-11-26T10:28:27.641Z,75.20
2018-11-26T10:30:56.356Z,74.90
2018-11-26T10:33:24.619Z,74.90
2018-11-26T10:35:59.941Z,74.70
2018-11-26T10:38:28.030Z,74.30
2018-11-26T10:40:56.107Z,74.00
2018-11-26T10:43:24.219Z,74.80
2018-11-26T10:45:52.360Z,74.00
2018-11-26T10:48:20.495Z,73.50
2018-11-26T10:50:48.813Z,73.40
2018-11-26T10:53:16.952Z,73.70
2018-11-26T10:55:45.069Z,74.00
2018-11-26T10:58:13.217Z,73.80
2018-11-26T11:00:45.568Z,73.80
2018-11-26T11:03:13.695Z,73.80
2018-11-26T11:05:41.847Z,74.00
2018-11-26T11:08:10.187Z,74.30
2018-11-26T11:10:38.291Z,74.60
2018-11-26T11:13:07.043Z,73.80
2018-11-26T11:15:35.456Z,73.80
2018-11-26T11:18:03.825Z,73.80
2018-11-26T11:20:32.011Z,73.90
2018-11-26T11:23:00.508Z,73.50
2018-11-26T11:25:28.632Z,73.20
2018-11-26T11:27:56.815Z,73.50
2018-11-26T11:30:27.332Z,73.60
2018-11-26T11:32:55.569Z,73.60
2018-11-26T11:35:23.838Z,73.20
2018-11-26T11:37:53.012Z,73.20
2018-11-26T11:40:25.693Z,73.40
2018-11-26T11:42:55.380Z,73.50
2018-11-26T11:45:24.029Z,73.50
2018-11-26T11:47:52.417Z,73.60
2018-11-26T11:50:21.328Z,73.50
2018-11-26T11:52:49.857Z,73.40
2018-11-26T11:55:19.047Z,73.50
2018-11-26T11:57:49.900Z,73.40
2018-11-26T12:00:29.474Z,73.60
2018-11-26T12:02:57.637Z,73.80
2018-11-26T12:05:26.132Z,73.70
2018-11-26T12:07:54.257Z,73.30
2018-11-26T12:10:22.393Z,73.60
2018-11-26T12:12:50.532Z,73.50
2018-11-26T12:15:18.712Z,73.50
2018-11-26T12:17:47.735Z,74.00
2018-11-26T12:20:16.437Z,74.40
2018-11-26T12:22:45.013Z,74.20
2018-11-26T12:25:15.341Z,74.20
2018-11-26T12:27:43.484Z,74.20
2018-11-26T12:30:17.990Z,73.60
2018-11-26T12:32:46.075Z,73.30
2018-11-26T12:35:14.276Z,73.60
2018-11-26T12:37:42.412Z,73.70
2018-11-26T12:40:16.044Z,73.50
2018-11-26T12:42:44.254Z,73.40
2018-11-26T12:45:28.508Z,73.10
2018-11-26T12:47:56.765Z,73.50
2018-11-26T12:50:24.981Z,73.90
2018-11-26T12:52:53.117Z,73.90
2018-11-26T12:55:22.921Z,73.60
2018-11-26T12:57:53.186Z,73.50
2018-11-26T13:00:22.522Z,73.30
2018-11-26T13:03:00.021Z,73.40
2018-11-26T13:05:28.123Z,74.40
2018-11-26T13:07:59.190Z,73.50
2018-11-26T13:10:30.370Z,73.10
2018-11-26T13:12:58.617Z,73.00
2018-11-26T13:15:31.139Z,73.10
2018-11-26T13:17:59.760Z,73.10
2018-11-26T13:20:31.110Z,73.70
2018-11-26T13:23:00.956Z,73.50
2018-11-26T13:25:35.206Z,73.40
2018-11-26T13:28:33.693Z,73.30
2018-11-26T13:31:01.881Z,73.20
2018-11-26T13:33:30.405Z,73.00
2018-11-26T13:35:59.481Z,73.40
2018-11-26T13:38:30.206Z,73.10
2018-11-26T13:41:01.190Z,73.20
2018-11-26T13:43:29.386Z,73.00
2018-11-26T13:45:57.532Z,73.00
2018-11-26T13:48:25.685Z,73.30
2018-11-26T13:50:55.972Z,73.30
2018-11-26T13:53:24.138Z,73.20
2018-11-26T13:55:52.525Z,73.10
2018-11-26T13:58:21.226Z,73.00
2018-11-26T14:00:49.414Z,73.10
2018-11-26T14:03:25.815Z,73.00
2018-11-26T14:05:54.010Z,73.40
2018-11-26T14:08:22.195Z,73.00
2018-11-26T14:10:51.302Z,72.90
2018-11-26T14:13:19.838Z,72.60
2018-11-26T14:15:48.819Z,72.90
2018-11-26T14:18:16.916Z,73.10
2018-11-26T14:20:45.200Z,73.40
2018-11-26T14:23:13.413Z,73.00
2018-11-26T14:25:41.609Z,72.90
2018-11-26T14:28:09.782Z,72.50
2018-11-26T14:30:38.132Z,73.50
2018-11-26T14:33:07.002Z,72.80
2018-11-26T14:35:35.181Z,73.30
2018-11-26T14:38:09.983Z,73.00
2018-11-26T14:40:46.992Z,72.80
2018-11-26T14:43:15.545Z,72.90
2018-11-26T14:45:43.840Z,72.80
2018-11-26T14:48:12.111Z,72.90
2018-11-26T14:50:40.205Z,73.20
2018-11-26T14:53:10.066Z,73.00
2018-11-26T14:55:38.590Z,73.00
2018-11-26T14:58:07.927Z,72.80
2018-11-26T15:00:36.181Z,72.80
2018-11-26T15:03:04.721Z,72.70
2018-11-26T15:05:33.034Z,72.70
2018-11-26T15:08:01.158Z,72.60
2018-11-26T15:10:29.313Z,72.80
2018-11-26T15:12:57.664Z,72.80
2018-11-26T15:15:26.520Z,72.80
2018-11-26T15:17:55.689Z,75.70
2018-11-26T15:20:25.521Z,75.40
2018-11-26T15:22:56.781Z,75.50
2018-11-26T15:25:28.923Z,75.40
2018-11-26T15:27:58.321Z,75.10
2018-11-26T15:30:26.730Z,74.90
2018-11-26T15:32:54.895Z,74.80
2018-11-26T15:35:23.919Z,75.00
2018-11-26T15:37:52.088Z,75.00
2018-11-26T15:40:21.205Z,74.70
2018-11-26T15:42:49.649Z,74.40
2018-11-26T15:45:19.682Z,74.00
2018-11-26T15:47:48.628Z,74.30
2018-11-26T15:50:17.334Z,74.70
2018-11-26T15:52:45.741Z,74.30
2018-11-26T15:55:16.742Z,74.60
2018-11-26T15:57:49.093Z,74.50
2018-11-26T16:00:24.520Z,74.30
2018-11-26T16:02:53.246Z,73.70
2018-11-26T16:05:27.298Z,73.20
2018-11-26T16:07:57.498Z,72.40
2018-11-26T16:10:26.075Z,71.80
2018-11-26T16:12:56.159Z,71.70
2018-11-26T16:15:27.053Z,71.90
2018-11-26T16:17:56.703Z,71.80
2018-11-26T16:20:25.933Z,71.40
2018-11-26T16:22:54.336Z,71.90
2018-11-26T16:25:24.576Z,72.20
2018-11-26T16:27:52.911Z,72.30
2018-11-26T16:30:21.032Z,71.70
2018-11-26T16:32:53.695Z,71.70
2018-11-26T16:35:24.217Z,72.30
2018-11-26T16:37:54.360Z,72.90
2018-11-26T16:40:22.934Z,72.70
2018-11-26T16:42:54.494Z,72.60
2018-11-26T16:45:24.767Z,72.40
2018-11-26T16:47:53.962Z,73.10
2018-11-26T16:50:25.161Z,72.80
2018-11-26T16:52:54.734Z,72.80
2018-11-26T16:55:24.451Z,72.60
2018-11-26T16:57:52.678Z,72.90
2018-11-26T17:00:29.818Z,73.00
2018-11-26T17:03:00.751Z,72.80
2018-11-26T17:05:43.289Z,72.70
2018-11-26T17:08:13.509Z,73.20
2018-11-26T17:10:44.806Z,73.20
2018-11-26T17:13:15.088Z,73.10
2018-11-26T17:15:43.735Z,73.40
2018-11-26T17:18:12.130Z,73.90
2018-11-26T17:20:40.428Z,74.20
2018-11-26T17:23:08.642Z,74.10
2018-11-26T17:25:37.045Z,73.90
2018-11-26T17:28:05.478Z,73.50
2018-11-26T17:30:33.680Z,73.70
2018-11-26T17:33:03.278Z,73.60
2018-11-26T17:35:49.098Z,73.60
2018-11-26T17:38:19.569Z,72.70
2018-11-26T17:41:12.784Z,72.30
2018-11-26T17:43:42.125Z,72.60
2018-11-26T17:46:10.610Z,72.80
2018-11-26T17:48:38.944Z,72.80
2018-11-26T17:51:07.318Z,72.70
2018-11-26T17:53:37.139Z,72.50
2018-11-26T18:13:37.786Z,73.20
2018-11-26T18:16:06.369Z,72.80
2018-11-26T18:18:34.661Z,73.10
2018-11-26T18:21:02.942Z,72.80
2018-11-26T18:23:32.699Z,72.80
2018-11-26T18:28:42.427Z,72.50
2018-11-26T18:31:10.879Z,73.00
2018-11-26T18:36:22.877Z,72.80
2018-11-26T18:39:10.030Z,72.60
2018-11-26T18:41:38.527Z,72.40
2018-11-26T18:44:06.841Z,72.60
2018-11-26T18:46:35.177Z,73.40
2018-11-26T18:49:03.591Z,73.10
2018-11-26T18:51:31.799Z,72.70
2018-11-26T18:54:00.140Z,72.60
2018-11-26T18:56:29.697Z,72.80
2018-11-26T18:58:58.129Z,73.20
2018-11-26T19:01:26.441Z,73.70
2018-11-26T19:03:54.647Z,74.10
2018-11-26T19:06:23.287Z,73.90
2018-11-26T19:08:51.884Z,73.90
2018-11-26T19:11:20.937Z,74.00
2018-11-26T19:14:08.058Z,73.80
2018-11-26T19:16:38.601Z,74.30
2018-11-26T19:19:07.112Z,74.70
2018-11-26T19:21:37.332Z,74.30
2018-11-26T19:24:08.458Z,74.00
2018-11-26T19:26:37.264Z,74.10
2018-11-26T19:29:05.901Z,73.50
2018-11-26T19:31:34.426Z,74.30
2018-11-26T19:34:03.988Z,74.80
2018-11-26T19:36:33.229Z,74.30
2018-11-26T19:39:01.496Z,74.10
2018-11-26T19:41:31.418Z,74.10
2018-11-26T19:44:01.256Z,74.20
2018-11-26T19:46:29.708Z,74.20
2018-11-26T19:48:57.875Z,74.70
2018-11-26T19:51:25.993Z,74.10
2018-11-26T19:53:55.309Z,74.10
2018-11-26T19:56:23.457Z,74.00
2018-11-26T19:59:01.540Z,74.00
2018-11-26T20:09:08.132Z,74.40
2018-11-26T20:11:36.259Z,74.30
2018-11-26T20:16:43.781Z,74.50
2018-11-26T20:19:11.893Z,74.40
2018-11-26T20:21:45.134Z,74.30
2018-11-26T20:24:13.288Z,74.80
2018-11-26T20:26:41.398Z,75.00
2018-11-26T20:29:09.738Z,75.00
2018-11-26T20:31:39.175Z,75.30
2018-11-26T20:34:07.885Z,75.80
2018-11-26T20:36:36.032Z,75.60
2018-11-26T20:39:06.581Z,75.30
2018-11-26T20:41:34.750Z,75.10
2018-11-26T20:44:03.105Z,75.50
2018-11-26T20:46:31.280Z,75.50
2018-11-26T20:48:59.390Z,75.40
2018-11-26T20:51:27.573Z,75.40
2018-11-26T20:53:56.008Z,76.00
2018-11-26T20:56:24.402Z,76.10
2018-11-26T20:58:52.553Z,75.80
2018-11-26T21:01:20.881Z,75.70
2018-11-26T21:03:49.453Z,75.60
2018-11-26T21:06:18.090Z,75.70
2018-11-26T21:08:47.785Z,75.70
2018-11-26T21:11:16.309Z,75.90
2018-11-26T21:13:46.369Z,75.30
2018-11-26T21:16:14.941Z,75.30
2018-11-26T21:18:43.330Z,75.10
2018-11-26T21:21:11.681Z,75.20
2018-11-26T21:23:40.135Z,75.40
2018-11-26T21:26:08.969Z,75.50
2018-11-26T21:28:37.477Z,75.70
2018-11-26T21:31:07.434Z,75.60
2018-11-26T21:33:36.093Z,75.40
2018-11-26T21:36:04.478Z,75.40
2018-11-26T21:38:33.980Z,75.60
2018-11-26T21:41:02.661Z,76.00
2018-11-26T21:43:31.552Z,75.40
2018-11-26T21:46:01.020Z,75.40
2018-11-26T21:48:29.388Z,75.10
2018-11-26T21:50:57.797Z,75.00
2018-11-26T21:53:26.196Z,74.80
2018-11-26T21:55:54.832Z,74.80
2018-11-26T21:58:23.261Z,74.80
2018-11-26T22:00:53.569Z,75.00
2018-11-26T22:03:23.154Z,75.40
2018-11-26T22:05:51.471Z,76.00
2018-11-26T22:08:19.833Z,76.90
2018-11-26T22:10:48.248Z,76.50
2018-11-26T22:13:18.384Z,76.10
2018-11-26T22:15:46.764Z,76.00
2018-11-26T22:18:15.257Z,76.10
2018-11-26T22:20:43.699Z,76.20
2018-11-26T22:23:15.891Z,76.10
2018-11-26T22:25:44.562Z,75.80
2018-11-26T22:28:14.533Z,76.80
2018-11-26T22:30:45.798Z,77.90
2018-11-26T22:33:14.233Z,77.80
2018-11-26T22:35:42.592Z,77.60
2018-11-26T22:38:11.384Z,77.60
2018-11-26T22:40:39.465Z,77.50
2018-11-26T22:43:07.590Z,77.70
2018-11-26T22:45:35.659Z,78.10
2018-11-26T22:48:08.263Z,78.20
2018-11-26T22:50:38.087Z,78.40
2018-11-26T22:53:09.898Z,78.20
2018-11-26T22:55:38.039Z,78.60
2018-11-26T22:58:12.333Z,79.80
2018-11-26T23:00:46.900Z,79.60
2018-11-26T23:03:16.320Z,78.60
2018-11-26T23:05:44.434Z,79.60
2018-11-26T23:08:12.486Z,79.50
2018-11-26T23:10:40.663Z,79.50
2018-11-26T23:13:09.045Z,78.80
2018-11-26T23:15:37.208Z,79.00
2018-11-26T23:18:05.989Z,79.10
2018-11-26T23:20:34.053Z,79.00
2018-11-26T23:23:02.360Z,78.70
2018-11-26T23:25:30.497Z,78.50
2018-11-26T23:27:58.592Z,78.60
2018-11-26T23:30:27.902Z,78.50
2018-11-26T23:32:57.179Z,78.60
2018-11-26T23:35:25.284Z,78.60
2018-11-26T23:37:53.431Z,78.40
2018-11-26T23:40:21.537Z,78.20
2018-11-26T23:42:49.658Z,78.30
2018-11-26T23:45:18.849Z,78.30
2018-11-26T23:47:47.012Z,78.30
2018-11-26T23:50:16.352Z,78.20
2018-11-26T23:52:44.868Z,78.20
2018-11-26T23:55:14.151Z,78.00
2018-11-26T23:57:42.261Z,77.80
